Meteo Giornale » Osservazioni meteo Iran » Zahedan
ore: 21:30 - Osservazioni Meteo Zahedan
Lat. 29° 28' N Lon. 60° 53' E Alt. 1370 metri s.l.m.
27 °C
Sereno
Temp. 24 Ore
21 °C
36 °C
Sud/Sud-Ovest
7.4 Km/h
Dew point 3 °C
Umidità 21 %
Visibilità 7 Km
Il sole sorge alle ore 05:03
Il sole tramonta alle ore 17:49
| Data e Ora | Cielo e Fenomeni | T °C | DP °C | Um. % | Pres. hPa | Vis. km | Vento km/h | |
|---|---|---|---|---|---|---|---|---|
| Oggi h: 21:30 | Sereno | 27 | 3 | 21 | 1014 | 7 | S/SO 7.4 | |
| Oggi h: 20:30 | Sereno | 30 | 4 | 19 | 1014 | 7 | N/NE 11.1 | |
| Oggi h: 19:30 | Sereno | 31 | 4 | 18 | 1013 | 7 | NE 11.1 | |
| Oggi h: 19:00 | Sereno | 31 | 4 | 18 | 1013 | 7 | NE 14.8 | |
| Oggi h: 18:30 | Sereno | 31 | 5 | 19 | 1012 | 7 | NE 16.7 | |
| Oggi h: 17:30 | Sereno | 33 | 4 | 16 | 1012 | 10 | NE 20.3 | |
| Oggi h: 16:30 | Sereno | 34 | 4 | 15 | 1011 | 10 | NE 20.3 | |
| Oggi h: 15:30 | Sereno | 35 | 4 | 14 | 1011 | 10 | NE 16.7 | |
| Oggi h: 15:00 | Sereno | 36 | 5 | 14 | 1011 | 10 | NE 18.5 | |
| Oggi h: 14:30 | Sereno | 35 | 5 | 15 | 1011 | 10 | N/NE 11.1 | |
| Oggi h: 14:00 | Sereno | 36 | 6 | 15 | 1011 | 10 | NE 13 | |
| Oggi h: 13:30 | Sereno | 36 | 5 | 14 | 1011 | 10 | N 14.8 | |
| Oggi h: 13:00 | Sereno | 36 | 6 | 15 | 1011 | 10 | N 13 | |
| Oggi h: 12:30 | Sereno | 36 | 6 | 15 | 1011 | 10 | E/NE 7.4 | |
| Oggi h: 12:00 | Sereno | 35 | 5 | 15 | 1012 | 10 | N/NO 9.3 | |
| Oggi h: 11:30 | Sereno | 35 | 6 | 16 | 1012 | 10 | N 9.3 | |
| Oggi h: 11:00 | Sereno | 35 | 5 | 15 | 1012 | 10 | N 13 | |
| Oggi h: 10:30 | Sereno | 34 | 4 | 15 | 1013 | 10 | N/NO 13 | |
| Oggi h: 10:00 | Sereno | 34 | 5 | 16 | 1013 | 10 | NE 7.4 | |
| Oggi h: 09:30 | Sereno | 32 | 8 | 22 | 1013 | 10 | N 5.5 | |
| Oggi h: 09:00 | Sereno | 32 | 8 | 22 | 1013 | 10 | N 1.8 | |
| Oggi h: 08:30 | Sereno | 30 | 9 | 27 | 1013 | 10 | N 3.7 | |
| Oggi h: 08:00 | Sereno | 28 | 9 | 30 | 1013 | 10 | N 3.7 | |
| Oggi h: 07:30 | Sereno | 28 | 9 | 30 | 1013 | 10 | N 5.5 | |
| Oggi h: 07:00 | Sereno | 27 | 7 | 28 | 1013 | 10 | N 1.8 | |
| Oggi h: 06:30 | Sereno | 25 | 7 | 31 | 1013 | 10 | N 3.7 | |
| Oggi h: 05:30 | Sereno | 21 | 6 | 37 | 1012 | 10 | S 9.3 | |
| Oggi h: 04:30 | Sereno | 22 | 5 | 32 | 1012 | 10 | S 7.4 | |
| Oggi h: 03:30 | Sereno | 24 | 8 | 35 | 1012 | 10 | NO 7.4 | |
| Oggi h: 02:30 | Sereno | 25 | 9 | 36 | 1012 | 10 | N 5.5 | |
| Oggi h: 01:30 | Sereno | 27 | 9 | 32 | 1012 | 10 | NE 9.3 | |
| Oggi h: 00:30 | Sereno | 28 | 9 | 30 | 1012 | 10 | E/NE 13 | |
| Ieri h: 23:30 | Sereno | 29 | 8 | 26 | 1012 | 10 | N/NE 11.1 | |
| Ieri h: 22:30 | Sereno | 30 | 6 | 22 | 1012 | 10 | N/NE 13 | |



